Ana Sayfa
METAR-TAF:

METAR-TAF

Havaalanları :

Kudat, Malezya

Enlem: 06-55N, Boylam: 116-50E, yükseklik: 3 m

Güncel hava durumu gözlemi

Rapor saat 23:00 UTC de 1 saat ve 11 dakika önce yapıldı.
Sakin rüzgar
Sıcaklık 26°C
Nem 94%
Basınç 1008 hPa
Görüş mesafesi 10 km veya daha fazla
1500 ft yükseklikte az bulutlu
14000 ft yükseklikte parçalı bulutlu
27000 ft yükseklikte parçalı çok bulutlu

METAR: WBKT 182300Z 00000KT 9999 FEW015 SCT140 BKN270 26/25 Q1008

Saat: 08:11 (00:11 UTC)


TAF: eksik

4.000'den fazla havaalanı için hava durumu gözlemleri ve tahminleri (METAR ve TAF raporları).

Kullanılabilir istasyonlar harita üzerinde sarı ve kırmızı noktalarla gösterilir.

İstasyonun adını görmek için fareyi noktanın üzerinde gezdirin.

Sonrasında hava gözlem ve tahminlerini görmek için tıklayın.

Haritayı değiştirmek için: yaklaştırmak için siyah artı işaretli yeşil düğmeye ve uzaklaştırmak için de eksi işaretli düğmeye hızla tıklayın; bitişik haritalar için yeşil okları kullanın.


METAR-TAF: